This is the latest recevied weather packets stored in our database for station/object KG4GJX. If no packets are shown the sender has not sent any weather packets the latest 10 day(s).
| Time | Temp. | Humidity | Pressure | Rain* | Wind** | Luminosity | Snow |
|---|---|---|---|---|---|---|---|
| 1777976285 | 10.56° C | 95% | 1012.8 hPa | 0 mm | - | - | - |
| 1777975622 | 10.56° C | 94% | 1013.2 hPa | 0 mm | - | - | - |
| 1777974960 | 10.56° C | 93% | 1013.2 hPa | 0 mm | - | - | - |
| 1777974297 | 10.56° C | 93% | 1013.2 hPa | 0 mm | - | - | - |
| 1777973635 | 11.11° C | 92% | 1012.8 hPa | 0 mm | - | - | - |
| 1777972972 | 11.67° C | 91% | 1012.8 hPa | 0 mm | - | - | - |
| 1777972310 | 11.67° C | 89% | 1012.8 hPa | 0 mm | - | - | - |
| 1777971648 | 11.67° C | 89% | 1012.8 hPa | 0 mm | - | - | - |
| 1777970985 | 11.67° C | 89% | 1012.8 hPa | 0 mm | - | - | - |
| 1777970323 | 12.22° C | 87% | 1012.8 hPa | 0 mm | - | - | - |
| 1777969661 | 12.22° C | 86% | 1013.2 hPa | 0 mm | - | - | - |
| 1777968999 | 12.22° C | 86% | 1013.2 hPa | 0 mm | - | - | - |
| 1777968336 | 12.22° C | 86% | 1013.2 hPa | 0 mm | - | - | - |
| 1777967674 | 12.22° C | 86% | 1013.2 hPa | 0 mm | - | - | - |
| 1777967011 | 11.67° C | 88% | 1013.2 hPa | 0 mm | - | - | - |
| 1777966349 | 11.67° C | 90% | 1013.2 hPa | 0 mm | - | - | - |
| 1777965687 | 11.67° C | 91% | 1013.2 hPa | 0 mm | - | - | - |
| 1777965024 | 11.67° C | 88% | 1013.2 hPa | 0 mm | - | - | - |
| 1777964362 | 12.22° C | 87% | 1013.2 hPa | 0 mm | - | - | - |
| 1777963700 | 12.78° C | 85% | 1013.2 hPa | 0 mm | - | - | - |
| 1777963037 | 13.33° C | 81% | 1013.2 hPa | 0 mm | - | - | - |
| 1777962375 | 13.89° C | 77% | 1013.5 hPa | 0 mm | - | - | - |
| 1777961712 | 14.44° C | 74% | 1013.5 hPa | 0 mm | - | - | - |
| 1777961050 | 15° C | 71% | 1013.2 hPa | 0 mm | - | - | - |
| 1777960388 | 15.56° C | 69% | 1013.2 hPa | 0 mm | - | - | - |
* Rain latest hour (hover to see other rain measurements)
** Current wind speed in m/s (hover to see current wind gust speed)